Time;durP1;ratioP1;P1;durP2;ratioP2;P2;SDS_P1;SDS_P2;PMS_P1;PMS_P2;Temp;Humidity;BMP_temperature;BMP_pressure;BME280_temperature;BME280_humidity;BME280_pressure;Samples;Min_cycle;Max_cycle;Signal;HPM_P1;HPM_P2
2022/04/04 00:04:59;;;;;;;10.07;7.63;;;;;;;3.90;99.53;101831.47;10379215;28;20327;-72
2022/04/04 00:09:59;;;;;;;15.15;9.48;;;;;;;3.93;100.00;101825.84;10377788;28;20391;-72
2022/04/04 00:14:59;;;;;;;12.68;8.45;;;;;;;3.99;100.00;101823.59;10377367;28;20054;-73
2022/04/04 00:20:00;;;;;;;16.73;8.75;;;;;;;3.96;100.00;101806.84;10377063;28;20386;-73
2022/04/04 00:25:00;;;;;;;10.27;6.47;;;;;;;4.01;98.20;101806.41;10376276;28;20049;-73
2022/04/04 00:30:02;;;;;;;21.17;8.18;;;;;;;3.93;100.00;101782.13;10377945;28;20500;-73
2022/04/04 00:35:03;;;;;;;11.90;7.35;;;;;;;3.94;100.00;101778.47;10360606;28;20401;-73
2022/04/04 00:40:07;;;;;;;9.40;6.53;;;;;;;3.97;100.00;101776.38;10377341;28;20050;-72
2022/04/04 00:45:08;;;;;;;17.38;7.40;;;;;;;4.01;100.00;101779.63;10377321;28;20042;-72
2022/04/04 00:50:09;;;;;;;14.63;6.80;;;;;;;3.99;100.00;101767.34;10377124;28;20030;-74
2022/04/04 00:55:09;;;;;;;10.18;6.05;;;;;;;4.02;100.00;101759.03;10377356;28;20363;-72
2022/04/04 01:00:11;;;;;;;14.77;6.50;;;;;;;4.08;100.00;101732.53;10376470;28;20037;-73
2022/04/04 01:05:11;;;;;;;9.18;7.07;;;;;;;4.17;100.00;101733.56;10374946;28;20037;-72
2022/04/04 01:10:12;;;;;;;12.60;6.25;;;;;;;4.21;100.00;101716.22;10375686;28;20037;-72
2022/04/04 01:15:13;;;;;;;14.98;6.60;;;;;;;4.34;100.00;101714.16;10376090;28;20103;-73
2022/04/04 01:20:14;;;;;;;11.27;7.72;;;;;;;4.33;100.00;101703.56;10373786;28;20041;-73
2022/04/04 01:25:16;;;;;;;12.60;7.40;;;;;;;4.39;100.00;101694.97;10373557;28;20044;-73
2022/04/04 01:30:17;;;;;;;29.10;9.60;;;;;;;4.45;100.00;101682.84;10374614;28;20033;-72
2022/04/04 01:35:18;;;;;;;17.23;9.77;;;;;;;4.53;100.00;101667.78;10373584;28;20474;-73
2022/04/04 01:40:19;;;;;;;9.77;8.27;;;;;;;4.54;100.00;101655.19;10374230;28;20040;-73
2022/04/04 01:46:23;;;;;;;11.70;9.80;;;;;;;4.58;100.00;101653.94;10374749;28;20042;-74
2022/04/04 01:50:40;;;;;;;23.77;9.98;;;;;;;4.58;100.00;101638.69;10373646;28;20042;-73
2022/04/04 01:55:40;;;;;;;10.30;9.25;;;;;;;4.55;100.00;101633.59;10356866;28;20070;-72
2022/04/04 02:00:41;;;;;;;19.85;10.48;;;;;;;4.55;100.00;101622.00;10373756;28;20080;-72
2022/04/04 02:05:41;;;;;;;15.05;10.10;;;;;;;4.53;100.00;101599.84;10381634;28;20135;-73
2022/04/04 02:10:41;;;;;;;18.05;10.30;;;;;;;4.69;100.00;101604.63;10381858;28;20378;-73
2022/04/04 02:15:42;;;;;;;9.52;7.68;;;;;;;4.71;100.00;101583.91;10381987;28;20137;-72
2022/04/04 02:20:42;;;;;;;22.40;9.32;;;;;;;4.80;100.00;101578.53;10383137;28;20033;-72
2022/04/04 02:25:46;;;;;;;20.48;9.43;;;;;;;4.79;100.00;101573.31;10381857;28;20491;-73
2022/04/04 02:30:47;;;;;;;22.83;9.85;;;;;;;4.80;100.00;101556.22;10381160;28;20030;-72
2022/04/04 02:35:47;;;;;;;15.52;10.27;;;;;;;4.93;100.00;101540.66;10380990;28;20123;-72
2022/04/04 02:40:48;;;;;;;15.35;9.25;;;;;;;5.00;100.00;101540.91;10378953;28;20117;-73
2022/04/04 02:45:48;;;;;;;20.92;11.82;;;;;;;5.11;100.00;101524.63;10379218;28;20413;-72
2022/04/04 02:50:49;;;;;;;11.95;10.43;;;;;;;5.17;100.00;101505.25;10380550;28;20045;-73
2022/04/04 03:01:08;;;;;;;14.68;10.70;;;;;;;5.35;100.00;101471.22;10380008;28;20034;-72
2022/04/04 03:06:09;;;;;;;18.10;10.35;;;;;;;5.40;100.00;101465.44;10380706;28;20456;-72
2022/04/04 03:11:09;;;;;;;16.63;11.50;;;;;;;5.48;100.00;101448.56;10379420;28;20029;-73
2022/04/04 03:16:10;;;;;;;18.73;9.27;;;;;;;5.49;99.93;101439.53;10378827;28;20061;-74
2022/04/04 03:21:11;;;;;;;11.02;8.43;;;;;;;5.53;99.05;101432.84;10379588;28;20072;-74
2022/04/04 03:26:12;;;;;;;20.73;8.93;;;;;;;5.63;97.53;101422.03;10379635;28;20029;-73
2022/04/04 03:31:13;;;;;;;13.48;9.45;;;;;;;5.69;97.04;101414.19;10378119;28;20056;-73
2022/04/04 03:36:13;;;;;;;16.52;8.77;;;;;;;5.70;96.77;101399.75;10377465;28;20500;-74
2022/04/04 03:41:14;;;;;;;17.98;8.63;;;;;;;5.63;96.63;101389.78;10379151;28;20049;-73
2022/04/04 03:46:14;;;;;;;17.95;7.72;;;;;;;5.71;95.30;101379.09;10377565;28;20136;-74
2022/04/04 03:51:15;;;;;;;17.58;8.77;;;;;;;5.78;94.85;101372.97;10376745;28;20033;-72
2022/04/04 03:56:15;;;;;;;11.48;8.32;;;;;;;5.81;94.58;101359.22;10377967;28;20477;-72
2022/04/04 04:01:16;;;;;;;8.45;7.60;;;;;;;5.78;94.82;101347.94;10378083;28;20084;-72
2022/04/04 04:06:16;;;;;;;16.38;9.95;;;;;;;5.74;94.90;101331.28;10377894;28;20139;-73
2022/04/04 04:11:17;;;;;;;15.10;7.90;;;;;;;5.74;94.62;101331.28;10378107;28;20092;-73
2022/04/04 04:16:17;;;;;;;15.20;8.85;;;;;;;5.73;94.11;101313.47;10377173;28;20062;-72
2022/04/04 04:21:18;;;;;;;10.90;8.32;;;;;;;5.76;93.81;101310.47;10377200;28;20092;-73
2022/04/04 04:26:18;;;;;;;21.05;8.35;;;;;;;5.73;93.80;101300.03;10373898;28;20065;-72
2022/04/04 04:31:18;;;;;;;12.35;7.50;;;;;;;5.73;93.88;101286.59;10378209;28;20030;-73
2022/04/04 04:36:19;;;;;;;6.22;4.97;;;;;;;5.74;93.69;101271.31;10394108;28;20446;-74
2022/04/04 04:41:19;;;;;;;13.30;8.52;;;;;;;5.73;93.94;101259.72;10400590;28;20026;-72
2022/04/04 04:46:20;;;;;;;11.82;7.43;;;;;;;5.75;93.35;101254.19;10391261;28;20042;-72
2022/04/04 04:51:20;;;;;;;10.98;7.68;;;;;;;5.84;92.73;101245.19;10384357;28;20037;-72
2022/04/04 04:56:20;;;;;;;11.05;8.48;;;;;;;5.72;93.10;101230.31;10399466;28;20025;-73
2022/04/04 05:01:21;;;;;;;12.98;7.38;;;;;;;5.68;93.25;101219.06;10398424;28;20045;-73
2022/04/04 05:06:21;;;;;;;11.73;8.85;;;;;;;5.70;92.84;101200.06;10395593;28;20053;-73
2022/04/04 05:11:22;;;;;;;19.17;8.23;;;;;;;5.68;92.82;101194.00;10407469;28;20036;-74
2022/04/04 05:16:28;;;;;;;9.45;7.18;;;;;;;5.72;92.79;101182.81;10412624;28;20054;-74
2022/04/04 05:21:29;;;;;;;8.90;6.90;;;;;;;5.67;92.71;101173.53;10410956;28;20048;-73
2022/04/04 05:26:29;;;;;;;13.13;9.60;;;;;;;5.66;92.39;101166.47;10352033;28;20042;-73
2022/04/04 05:31:31;;;;;;;17.13;8.50;;;;;;;5.63;92.59;101166.78;10397360;28;20029;-73
2022/04/04 05:36:33;;;;;;;15.93;8.95;;;;;;;5.64;92.67;101153.19;10403112;28;20041;-74
2022/04/04 05:41:36;;;;;;;14.07;10.50;;;;;;;5.53;93.18;101151.63;10405764;28;20081;-72
2022/04/04 05:46:37;;;;;;;12.55;10.43;;;;;;;5.32;95.85;101143.06;10409416;28;20072;-73
2022/04/04 05:51:38;;;;;;;17.50;12.05;;;;;;;5.23;98.13;101142.19;10408748;28;20042;-72
2022/04/04 05:56:38;;;;;;;15.30;11.02;;;;;;;5.18;100.00;101143.66;10409751;28;20029;-72
2022/04/04 06:01:40;;;;;;;20.60;11.60;;;;;;;5.17;100.00;101133.91;10397482;28;20028;-72
2022/04/04 06:06:40;;;;;;;11.75;6.32;;;;;;;5.18;100.00;101109.59;10395388;28;20423;-73
2022/04/04 06:11:41;;;;;;;16.02;8.55;;;;;;;5.25;100.00;101099.06;10393776;28;20034;-74
2022/04/04 06:16:41;;;;;;;10.77;9.63;;;;;;;5.28;100.00;101104.97;10389164;28;20069;-74
2022/04/04 06:21:42;;;;;;;22.88;10.55;;;;;;;5.28;100.00;101096.91;10390239;28;20056;-74
2022/04/04 06:26:43;;;;;;;15.77;9.05;;;;;;;5.37;100.00;101100.50;10387326;28;20038;-74
2022/04/04 06:31:44;;;;;;;23.75;10.98;;;;;;;5.44;100.00;101081.91;10386976;28;20046;-75
2022/04/04 06:36:46;;;;;;;7.22;6.50;;;;;;;5.51;100.00;101072.19;10384935;28;20026;-74
2022/04/04 06:41:47;;;;;;;11.45;4.47;;;;;;;5.53;100.00;101064.81;10386452;28;20373;-74
2022/04/04 06:46:47;;;;;;;9.63;4.70;;;;;;;5.48;97.14;101056.41;10387377;28;20071;-75
2022/04/04 06:51:48;;;;;;;10.93;4.97;;;;;;;5.48;97.17;101049.19;10394144;28;20038;-74
2022/04/04 06:56:49;;;;;;;15.02;5.78;;;;;;;5.58;97.05;101043.69;10395162;28;20091;-74
2022/04/04 07:01:50;;;;;;;5.88;3.58;;;;;;;5.48;97.43;101035.75;10393451;28;20361;-74
2022/04/04 07:06:50;;;;;;;6.82;4.88;;;;;;;5.36;100.00;101045.94;10397518;28;20037;-73
2022/04/04 07:11:51;;;;;;;11.35;5.97;;;;;;;5.33;100.00;101030.16;10397212;28;20038;-73
2022/04/04 07:16:53;;;;;;;7.93;6.28;;;;;;;5.17;100.00;101027.38;10395793;28;20061;-72
2022/04/04 07:21:54;;;;;;;17.15;6.55;;;;;;;5.08;100.00;101021.13;10397508;28;20223;-73
2022/04/04 07:26:54;;;;;;;8.20;5.45;;;;;;;5.03;100.00;101011.84;10398503;28;20532;-73
2022/04/04 07:31:55;;;;;;;11.88;6.18;;;;;;;5.01;100.00;101001.28;10393876;28;20398;-73
2022/04/04 07:36:55;;;;;;;14.32;6.53;;;;;;;4.97;100.00;100991.84;10393628;28;20029;-72
2022/04/04 07:41:56;;;;;;;10.57;6.40;;;;;;;4.95;100.00;100980.47;10395471;28;20045;-72
2022/04/04 07:46:56;;;;;;;19.67;8.52;;;;;;;4.97;100.00;100956.97;10395563;28;20044;-73
2022/04/04 07:51:56;;;;;;;8.02;7.03;;;;;;;5.01;100.00;100962.84;10393823;28;20033;-72
2022/04/04 07:56:57;;;;;;;17.77;7.88;;;;;;;5.03;100.00;100942.06;10393376;28;20034;-73
2022/04/04 08:01:57;;;;;;;9.98;6.65;;;;;;;5.06;100.00;100942.59;10396683;28;20149;-74
2022/04/04 08:06:58;;;;;;;14.52;8.38;;;;;;;5.15;100.00;100935.44;10398716;28;20042;-73
2022/04/04 08:11:58;;;;;;;8.82;6.80;;;;;;;5.12;100.00;100927.69;10396468;28;20427;-73
2022/04/04 08:17:00;;;;;;;10.75;7.60;;;;;;;5.11;100.00;100939.44;10403265;28;20050;-73
2022/04/04 08:22:01;;;;;;;27.27;9.70;;;;;;;5.18;100.00;100924.38;10403621;28;20042;-74
2022/04/04 08:27:01;;;;;;;12.93;8.00;;;;;;;5.20;100.00;100914.31;10402297;28;20454;-74
2022/04/04 08:32:02;;;;;;;16.17;7.78;;;;;;;5.20;100.00;100921.50;10390936;28;20042;-74
2022/04/04 08:37:03;;;;;;;27.23;7.15;;;;;;;5.26;100.00;100913.63;10392868;28;20041;-74
2022/04/04 08:42:03;;;;;;;21.08;7.80;;;;;;;5.28;100.00;100890.16;10384970;28;20042;-74
2022/04/04 08:47:04;;;;;;;9.75;5.80;;;;;;;5.25;100.00;100878.91;10375589;28;20041;-76
2022/04/04 08:52:06;;;;;;;8.73;6.03;;;;;;;5.33;100.00;100893.22;10376859;28;20052;-73
2022/04/04 08:57:06;;;;;;;25.50;6.90;;;;;;;5.43;100.00;100866.22;10378521;28;20048;-74
2022/04/04 09:02:07;;;;;;;19.17;6.93;;;;;;;5.45;100.00;100866.88;10375752;28;20033;-75
2022/04/04 09:07:08;;;;;;;32.75;9.15;;;;;;;5.50;100.00;100869.06;10376264;28;20072;-75
2022/04/04 09:12:16;;;;;;;14.75;6.85;;;;;;;5.59;100.00;100860.03;10378875;28;20040;-76
2022/04/04 09:17:18;;;;;;;14.82;6.55;;;;;;;5.72;100.00;100855.00;10370005;28;20045;-77
2022/04/04 09:22:19;;;;;;;20.65;6.28;;;;;;;5.72;100.00;100855.00;10382610;28;20041;-76
2022/04/04 09:27:22;;;;;;;18.38;7.55;;;;;;;5.75;100.00;100838.53;10381604;28;20030;-75
2022/04/04 09:32:34;;;;;;;29.33;5.55;;;;;;;5.73;100.00;100829.81;10380445;28;20030;-75
2022/04/04 09:37:35;;;;;;;16.75;5.43;;;;;;;5.80;100.00;100833.50;10378788;28;20057;-75
2022/04/04 09:42:35;;;;;;;13.88;6.47;;;;;;;5.82;100.00;100807.31;10360219;28;20056;-76
2022/04/04 09:48:06;;;;;;;11.38;5.75;;;;;;;5.76;100.00;100829.47;10379252;28;20117;-76
2022/04/04 09:53:12;;;;;;;15.25;6.65;;;;;;;5.88;100.00;100824.59;10377817;28;20026;-73
2022/04/04 09:58:15;;;;;;;15.80;5.75;;;;;;;5.86;100.00;100828.47;10379000;28;20057;-74
2022/04/04 10:03:20;;;;;;;13.93;5.07;;;;;;;5.91;100.00;100804.63;10378625;28;20080;-74
2022/04/04 10:08:20;;;;;;;20.33;6.65;;;;;;;6.01;100.00;100794.56;10381007;28;20034;-73
2022/04/04 10:13:23;;;;;;;13.13;6.50;;;;;;;6.19;100.00;100805.09;10382986;28;20029;-73
2022/04/04 10:18:23;;;;;;;15.75;5.47;;;;;;;6.28;100.00;100786.06;10381377;28;20096;-73
2022/04/04 10:23:24;;;;;;;14.05;4.97;;;;;;;6.32;100.00;100781.22;10383587;28;20053;-74
2022/04/04 10:28:35;;;;;;;15.70;6.25;;;;;;;6.36;100.00;100781.72;10385561;28;20087;-73
2022/04/04 10:33:35;;;;;;;17.55;5.35;;;;;;;6.40;100.00;100777.66;10388232;28;20068;-73
2022/04/04 10:38:45;;;;;;;15.80;5.40;;;;;;;6.46;100.00;100774.28;10386276;28;20096;-73
2022/04/04 10:43:47;;;;;;;28.27;5.90;;;;;;;6.56;100.00;100769.50;10384434;28;20025;-73
2022/04/04 10:48:52;;;;;;;13.98;5.07;;;;;;;6.61;100.00;100761.78;10383051;28;20381;-76
2022/04/04 10:53:54;;;;;;;21.55;6.70;;;;;;;6.65;100.00;100752.31;10385355;28;20065;-74
2022/04/04 10:59:16;;;;;;;12.68;6.20;;;;;;;6.65;100.00;100738.03;10382866;28;20034;-74
2022/04/04 11:04:24;;;;;;;6.70;4.22;;;;;;;6.68;100.00;100743.91;10382931;28;20048;-73
2022/04/04 11:09:32;;;;;;;7.50;3.15;;;;;;;6.73;100.00;100748.75;10365745;28;20441;-73
2022/04/04 11:14:37;;;;;;;15.00;3.40;;;;;;;6.76;100.00;100724.16;10382573;28;20126;-73
2022/04/04 11:19:53;;;;;;;15.52;3.10;;;;;;;6.94;100.00;100713.97;10387525;28;20497;-72
2022/04/04 11:25:03;;;;;;;10.60;3.85;;;;;;;7.00;100.00;100717.81;10385875;28;20029;-72
2022/04/04 11:30:07;;;;;;;7.18;3.60;;;;;;;7.05;100.00;100718.13;10382465;28;20044;-73
2022/04/04 11:35:14;;;;;;;9.57;3.35;;;;;;;7.10;100.00;100699.56;10381695;28;20034;-73
2022/04/04 11:40:18;;;;;;;6.13;3.42;;;;;;;7.13;100.00;100706.44;10382350;28;20069;-73
2022/04/04 11:45:20;;;;;;;3.47;2.75;;;;;;;7.16;100.00;100692.63;10381657;28;20501;-74
2022/04/04 11:50:24;;;;;;;4.68;3.53;;;;;;;7.21;100.00;100704.53;10385004;28;20029;-73
2022/04/04 11:55:25;;;;;;;3.38;3.08;;;;;;;7.17;100.00;100689.72;10382655;28;20034;-72
2022/04/04 12:00:33;;;;;;;6.95;3.95;;;;;;;7.27;100.00;100681.41;10380984;28;20474;-73
2022/04/04 12:05:34;;;;;;;3.10;2.88;;;;;;;7.25;100.00;100679.94;10380633;28;20030;-72
2022/04/04 12:10:37;;;;;;;4.90;4.50;;;;;;;7.31;100.00;100685.44;10363298;28;20500;-74
2022/04/04 12:15:43;;;;;;;9.95;5.75;;;;;;;7.34;100.00;100690.47;10377510;28;20034;-73
2022/04/04 12:20:45;;;;;;;12.25;6.38;;;;;;;7.40;100.00;100670.88;10361912;28;20049;-74
2022/04/04 12:25:45;;;;;;;8.48;5.55;;;;;;;7.40;100.00;100661.94;10361078;28;20164;-73
2022/04/04 12:30:46;;;;;;;5.93;5.38;;;;;;;7.49;100.00;100665.41;10375094;28;20558;-73
2022/04/04 12:35:47;;;;;;;11.15;5.10;;;;;;;7.48;100.00;100656.47;10374542;28;20157;-72
2022/04/04 12:41:09;;;;;;;10.23;5.18;;;;;;;7.50;100.00;100657.16;10358342;28;20045;-72
2022/04/04 12:46:27;;;;;;;6.30;4.82;;;;;;;7.55;100.00;100641.25;10368741;28;20417;-72
2022/04/04 12:51:29;;;;;;;12.73;5.10;;;;;;;7.64;100.00;100647.41;10375331;28;20034;-74
2022/04/04 12:56:32;;;;;;;16.63;6.50;;;;;;;7.72;100.00;100635.69;10359487;28;20137;-73
2022/04/04 13:01:32;;;;;;;24.98;5.82;;;;;;;7.62;100.00;100638.66;10376532;28;20037;-73
2022/04/04 13:06:33;;;;;;;5.35;4.90;;;;;;;7.69;100.00;100631.53;10357534;28;20466;-73
2022/04/04 13:11:47;;;;;;;17.27;6.22;;;;;;;7.72;100.00;100623.03;10374518;28;20394;-72
2022/04/04 13:16:53;;;;;;;13.15;8.32;;;;;;;7.82;100.00;100626.31;10374615;28;20209;-73
2022/04/04 13:21:53;;;;;;;28.95;7.78;;;;;;;7.89;100.00;100624.53;10375158;28;20474;-72
2022/04/04 13:26:55;;;;;;;9.40;8.48;;;;;;;7.90;100.00;100612.72;10376710;28;20038;-72
2022/04/04 13:31:56;;;;;;;21.48;8.68;;;;;;;7.93;100.00;100614.22;10375712;28;20030;-73
2022/04/04 13:36:56;;;;;;;20.33;7.65;;;;;;;7.97;100.00;100618.19;10373548;28;20046;-75
2022/04/04 13:41:57;;;;;;;17.30;8.18;;;;;;;8.04;100.00;100613.75;10357224;28;20084;-73
2022/04/04 13:46:58;;;;;;;24.17;10.88;;;;;;;8.12;100.00;100612.78;10356390;28;20045;-74
2022/04/04 13:51:58;;;;;;;17.95;8.93;;;;;;;8.15;100.00;100607.84;10372984;28;20528;-74
2022/04/04 13:56:59;;;;;;;10.63;6.88;;;;;;;8.18;100.00;100608.50;10376895;28;20038;-74
2022/04/04 14:01:59;;;;;;;13.60;8.23;;;;;;;8.24;100.00;100613.16;10382309;28;20049;-74
2022/04/04 14:07:00;;;;;;;24.80;8.45;;;;;;;8.29;100.00;100605.31;10381857;28;20394;-74
2022/04/04 14:12:01;;;;;;;20.75;10.18;;;;;;;8.31;100.00;100595.19;10364714;28;20038;-75
2022/04/04 14:17:02;;;;;;;29.02;7.97;;;;;;;8.34;100.00;100597.50;10380389;28;20053;-75
2022/04/04 14:22:03;;;;;;;15.15;8.23;;;;;;;8.52;100.00;100597.09;10363899;28;20038;-74
2022/04/04 14:27:03;;;;;;;18.60;9.65;;;;;;;8.45;100.00;100607.81;10381010;28;20446;-75
2022/04/04 14:32:04;;;;;;;24.50;9.95;;;;;;;8.52;100.00;100589.84;10381748;28;20042;-76
2022/04/04 14:37:05;;;;;;;23.90;9.02;;;;;;;8.58;100.00;100580.97;10381087;28;20046;-75
2022/04/04 14:42:06;;;;;;;14.88;9.95;;;;;;;8.59;100.00;100589.91;10380021;28;20459;-74
2022/04/04 14:47:07;;;;;;;11.27;8.82;;;;;;;8.58;100.00;100580.97;10362939;28;20029;-76
2022/04/04 14:52:07;;;;;;;17.15;9.55;;;;;;;8.63;100.00;100593.88;10380742;28;20030;-75
2022/04/04 14:57:08;;;;;;;25.02;9.13;;;;;;;8.71;100.00;100587.50;10378855;28;20073;-75
2022/04/04 15:02:08;;;;;;;14.68;7.88;;;;;;;8.69;100.00;100578.78;10378309;28;20120;-75
2022/04/04 15:07:12;;;;;;;27.40;9.55;;;;;;;8.69;100.00;100576.09;10378132;28;20489;-77
2022/04/04 15:12:12;;;;;;;16.88;9.45;;;;;;;8.74;100.00;100571.78;10377787;28;20041;-77
2022/04/04 15:17:13;;;;;;;30.30;9.50;;;;;;;8.83;100.00;100567.06;10379087;28;20046;-75
2022/04/04 15:22:13;;;;;;;16.15;9.23;;;;;;;8.89;100.00;100565.47;10378033;28;20038;-75
2022/04/04 15:27:14;;;;;;;13.73;8.77;;;;;;;8.93;100.00;100556.78;10377667;28;20048;-77
2022/04/04 15:32:14;;;;;;;12.10;8.50;;;;;;;9.02;100.00;100555.59;10361753;28;20038;-75
2022/04/04 15:37:15;;;;;;;20.33;9.25;;;;;;;9.03;100.00;100549.19;10378283;28;20061;-75
2022/04/04 15:42:16;;;;;;;16.02;8.75;;;;;;;9.09;100.00;100552.94;10376400;28;20474;-77
2022/04/04 15:47:16;;;;;;;10.73;7.05;;;;;;;9.11;100.00;100548.19;10378453;28;20049;-75
2022/04/04 15:52:17;;;;;;;30.45;10.95;;;;;;;9.14;100.00;100550.50;10378989;28;20065;-76
2022/04/04 15:57:17;;;;;;;16.13;8.15;;;;;;;9.06;100.00;100539.84;10377737;28;20037;-75
2022/04/04 16:02:17;;;;;;;8.55;7.70;;;;;;;9.08;100.00;100556.69;10360092;28;20037;-76
2022/04/04 16:07:18;;;;;;;21.30;8.75;;;;;;;9.17;100.00;100563.63;10376693;28;20113;-75
2022/04/04 16:12:18;;;;;;;14.30;7.25;;;;;;;9.20;100.00;100559.69;10375528;28;20046;-76
2022/04/04 16:17:19;;;;;;;10.13;7.32;;;;;;;9.22;100.00;100560.31;10377404;28;20046;-75
2022/04/04 16:22:19;;;;;;;16.83;8.25;;;;;;;9.21;100.00;100554.09;10376107;28;20037;-77
2022/04/04 16:27:19;;;;;;;15.23;7.20;;;;;;;9.25;100.00;100560.78;10378971;28;20053;-76
2022/04/04 16:32:20;;;;;;;12.82;7.18;;;;;;;9.23;100.00;100557.44;10377474;28;20041;-75
2022/04/04 16:37:20;;;;;;;13.93;7.40;;;;;;;9.25;100.00;100558.09;10374947;28;20038;-74
2022/04/04 16:42:24;;;;;;;12.60;7.43;;;;;;;9.26;100.00;100556.22;10376243;28;20041;-75
2022/04/04 16:47:25;;;;;;;13.23;7.90;;;;;;;9.27;100.00;100563.28;10375878;28;20038;-75
2022/04/04 16:52:25;;;;;;;32.92;8.68;;;;;;;9.29;100.00;100556.66;10358472;28;20029;-77
2022/04/04 16:57:25;;;;;;;15.57;9.02;;;;;;;9.29;100.00;100562.06;10374570;28;20470;-76
2022/04/04 17:02:26;;;;;;;14.50;8.90;;;;;;;9.24;100.00;100545.59;10375802;28;20045;-77
2022/04/04 17:07:26;;;;;;;7.25;6.47;;;;;;;9.31;100.00;100553.72;10374083;28;20079;-75
2022/04/04 17:12:27;;;;;;;9.27;8.30;;;;;;;9.26;100.00;100551.63;10375799;28;20120;-76
2022/04/04 17:17:27;;;;;;;13.57;8.20;;;;;;;9.27;100.00;100547.06;10373718;28;20058;-76
2022/04/04 17:22:28;;;;;;;20.88;8.57;;;;;;;9.33;100.00;100562.50;10374371;28;20470;-77
2022/04/04 17:27:28;;;;;;;10.85;6.97;;;;;;;9.31;100.00;100541.06;10357356;28;20389;-75
2022/04/04 17:32:28;;;;;;;14.63;8.27;;;;;;;9.32;100.00;100544.63;10374115;28;20038;-76
2022/04/04 17:37:29;;;;;;;15.60;8.20;;;;;;;9.37;100.00;100536.72;10374516;28;20544;-76
2022/04/04 17:42:32;;;;;;;19.58;8.82;;;;;;;9.42;100.00;100528.88;10372893;28;20056;-76
2022/04/04 17:47:34;;;;;;;11.05;8.18;;;;;;;9.39;100.00;100515.75;10374112;28;20037;-75
2022/04/04 17:52:34;;;;;;;9.88;6.72;;;;;;;9.41;100.00;100519.09;10372992;28;20037;-77
2022/04/04 17:57:35;;;;;;;16.20;8.88;;;;;;;9.45;100.00;100530.34;10374203;28;20462;-76
2022/04/04 18:02:35;;;;;;;19.98;7.30;;;;;;;9.45;100.00;100522.25;10374255;28;20034;-78
2022/04/04 18:07:36;;;;;;;12.65;7.03;;;;;;;9.46;100.00;100522.03;10374153;28;20077;-77
2022/04/04 18:12:37;;;;;;;14.10;8.30;;;;;;;9.48;100.00;100511.84;10374237;28;20030;-77
2022/04/04 18:17:37;;;;;;;17.20;7.38;;;;;;;9.51;100.00;100503.34;10375926;28;20053;-77
2022/04/04 18:22:38;;;;;;;20.67;8.02;;;;;;;9.51;100.00;100516.88;10374946;28;20054;-75
2022/04/04 18:27:38;;;;;;;10.32;7.82;;;;;;;9.56;100.00;100524.38;10373814;28;20034;-76
2022/04/04 18:32:39;;;;;;;23.10;8.75;;;;;;;9.58;100.00;100524.19;10374865;28;20046;-77
2022/04/04 18:37:40;;;;;;;19.02;8.10;;;;;;;9.63;100.00;100527.09;10372283;28;20476;-76
2022/04/04 18:42:40;;;;;;;19.77;7.75;;;;;;;9.60;100.00;100519.38;10375959;28;20042;-79
2022/04/04 18:47:41;;;;;;;18.33;7.93;;;;;;;9.57;100.00;100528.72;10386556;28;20073;-79
2022/04/04 18:52:41;;;;;;;19.00;8.60;;;;;;;9.58;100.00;100516.06;10384156;28;20032;-78
2022/04/04 18:57:42;;;;;;;15.95;7.85;;;;;;;9.63;100.00;100508.16;10383692;28;20044;-78
2022/04/04 19:02:42;;;;;;;20.77;9.93;;;;;;;9.61;100.00;100515.66;10384259;28;20367;-79
2022/04/04 19:07:43;;;;;;;22.58;8.05;;;;;;;9.61;100.00;100516.50;10381929;28;20069;-79
2022/04/04 19:12:43;;;;;;;20.13;9.82;;;;;;;9.59;100.00;100506.91;10384363;28;20061;-78
2022/04/04 19:17:44;;;;;;;27.45;9.02;;;;;;;9.58;100.00;100518.78;10383308;28;20042;-79
2022/04/04 19:22:44;;;;;;;11.30;7.85;;;;;;;9.64;100.00;100520.69;10383845;28;20037;-79
2022/04/04 19:27:45;;;;;;;21.85;8.30;;;;;;;9.60;100.00;100519.38;10379125;28;20042;-75
2022/04/04 19:32:46;;;;;;;17.23;9.23;;;;;;;9.59;100.00;100523.97;10379329;28;20037;-75
2022/04/04 19:37:46;;;;;;;22.45;9.88;;;;;;;9.58;100.00;100521.47;10380093;28;20029;-75
2022/04/04 19:42:47;;;;;;;24.13;9.63;;;;;;;9.58;100.00;100516.06;10379845;28;20042;-75
2022/04/04 19:47:50;;;;;;;21.95;10.18;;;;;;;9.59;100.00;100515.03;10378043;28;20450;-75
2022/04/04 19:52:51;;;;;;;17.05;9.57;;;;;;;9.65;100.00;100528.56;10379868;28;20029;-75
2022/04/04 19:57:51;;;;;;;14.27;9.88;;;;;;;9.84;100.00;100531.56;10378446;28;20091;-75
2022/04/04 20:02:52;;;;;;;17.15;10.65;;;;;;;9.85;100.00;100523.25;10378520;28;20088;-75
2022/04/04 20:07:53;;;;;;;20.38;9.38;;;;;;;9.90;100.00;100515.38;10378284;28;20061;-75
2022/04/04 20:12:54;;;;;;;11.93;9.35;;;;;;;9.94;100.00;100521.22;10376892;28;20045;-74
2022/04/04 20:17:54;;;;;;;11.82;8.98;;;;;;;9.93;100.00;100522.25;10378214;28;20050;-75
2022/04/04 20:22:55;;;;;;;12.60;8.75;;;;;;;9.96;100.00;100532.66;10377074;28;20038;-74
2022/04/04 20:27:55;;;;;;;21.67;9.13;;;;;;;9.89;100.00;100535.34;10377987;28;20033;-75
2022/04/04 20:32:55;;;;;;;17.63;8.02;;;;;;;9.86;100.00;100530.34;10375444;28;20111;-73
2022/04/04 20:37:56;;;;;;;16.17;8.23;;;;;;;9.79;100.00;100524.03;10377562;28;20030;-74
2022/04/04 20:42:56;;;;;;;28.20;10.95;;;;;;;9.78;100.00;100533.22;10376685;28;20038;-74
2022/04/04 20:47:57;;;;;;;16.52;8.25;;;;;;;9.77;100.00;100523.44;10377167;28;20446;-74
2022/04/04 20:52:57;;;;;;;12.20;8.35;;;;;;;9.78;100.00;100527.78;10377150;28;20051;-74
2022/04/04 20:57:58;;;;;;;11.15;7.68;;;;;;;9.77;100.00;100523.44;10375221;28;20030;-73
2022/04/04 21:03:00;;;;;;;24.70;9.40;;;;;;;9.72;100.00;100518.63;10377316;28;20037;-76
2022/04/04 21:08:00;;;;;;;11.75;8.13;;;;;;;9.78;100.00;100522.38;10357292;28;20026;-75
2022/04/04 21:13:01;;;;;;;23.92;8.35;;;;;;;9.79;100.00;100518.63;10359914;28;20042;-77
2022/04/04 21:18:03;;;;;;;25.15;8.27;;;;;;;9.78;100.00;100514.28;10374533;28;20085;-75
2022/04/04 21:23:04;;;;;;;19.40;10.32;;;;;;;9.79;100.00;100518.63;10358048;28;20421;-76
2022/04/04 21:28:04;;;;;;;20.17;7.78;;;;;;;9.78;100.00;100522.38;10375135;28;20030;-74
2022/04/04 21:33:05;;;;;;;13.80;8.20;;;;;;;9.75;100.00;100528.19;10374989;28;20045;-75
2022/04/04 21:38:05;;;;;;;21.33;9.27;;;;;;;9.78;100.00;100523.22;10374257;28;20065;-73
2022/04/04 21:43:06;;;;;;;17.98;9.18;;;;;;;9.82;100.00;100528.22;10373714;28;20044;-75
2022/04/04 21:48:06;;;;;;;12.93;6.93;;;;;;;9.83;100.00;100527.19;10357056;28;20461;-75
2022/04/04 21:53:07;;;;;;;14.27;9.48;;;;;;;9.82;100.00;100518.25;10373486;28;20084;-76
2022/04/04 21:58:08;;;;;;;17.73;8.32;;;;;;;9.82;100.00;100525.53;10375704;28;20088;-76
2022/04/04 22:03:08;;;;;;;24.25;8.45;;;;;;;9.84;100.00;100521.59;10373264;28;20038;-73
2022/04/04 22:08:09;;;;;;;15.68;9.13;;;;;;;9.85;100.00;100531.34;10373589;28;20386;-75
2022/04/04 22:13:09;;;;;;;19.50;7.93;;;;;;;9.89;100.00;100531.78;10373150;28;20112;-75
2022/04/04 22:18:10;;;;;;;21.15;10.57;;;;;;;9.90;100.00;100539.72;10375704;28;20061;-75
2022/04/04 22:23:10;;;;;;;20.40;11.50;;;;;;;9.90;100.00;100538.88;10382113;28;20386;-75
2022/04/04 22:28:11;;;;;;;11.55;8.52;;;;;;;9.89;100.00;100543.47;10348037;28;20037;-74
2022/04/04 22:33:11;;;;;;;18.60;8.30;;;;;;;9.88;100.00;100552.59;10381715;28;20085;-76
2022/04/04 22:38:11;;;;;;;20.95;8.35;;;;;;;9.85;100.00;100544.88;10380304;28;20509;-76
2022/04/04 22:43:12;;;;;;;17.55;8.30;;;;;;;9.82;100.00;100549.88;10381270;28;20054;-75
2022/04/04 22:48:13;;;;;;;17.00;7.45;;;;;;;9.83;100.00;100540.69;10380653;28;20598;-77
2022/04/04 22:53:16;;;;;;;16.77;8.00;;;;;;;9.75;100.00;100541.72;10381509;28;20061;-77
2022/04/04 22:58:17;;;;;;;18.08;7.72;;;;;;;9.79;100.00;100545.69;10380097;28;20029;-75
2022/04/04 23:03:17;;;;;;;12.77;7.32;;;;;;;9.82;100.00;100547.97;10381086;28;20116;-75